createdAt,value
2022-12-23T00:00:40.849Z,93490.81
2022-12-23T00:03:07.967Z,93489.66
2022-12-23T00:05:38.959Z,93493.69
2022-12-23T00:08:06.865Z,93485.41
2022-12-23T00:10:35.175Z,93494.25
2022-12-23T00:13:20.444Z,93497.16
2022-12-23T00:15:47.182Z,93501.53
2022-12-23T00:18:14.011Z,93504.63
2022-12-23T00:20:40.743Z,93511.59
2022-12-23T00:23:07.579Z,93510.53
2022-12-23T00:25:41.960Z,93512.38
2022-12-23T00:28:14.585Z,93513.97
2022-12-23T00:30:55.935Z,93515.03
2022-12-23T00:33:24.848Z,93519.28
2022-12-23T00:35:52.188Z,93511.31
2022-12-23T00:38:43.039Z,93513.25
2022-12-23T00:41:33.475Z,93508.53
2022-12-23T00:44:00.362Z,93506.09
2022-12-23T00:46:27.290Z,93500.69
2022-12-23T00:49:12.670Z,93498.03
2022-12-23T00:51:39.571Z,93497.59
2022-12-23T00:54:06.639Z,93493.00
2022-12-23T00:56:33.461Z,93491.50
2022-12-23T00:59:00.415Z,93493.13
2022-12-23T01:01:45.923Z,93492.97
2022-12-23T01:04:32.941Z,93483.53
2022-12-23T01:06:59.750Z,93485.25
2022-12-23T01:09:26.878Z,93489.19
2022-12-23T01:11:53.870Z,93492.66
2022-12-23T01:14:21.114Z,93493.69
2022-12-23T01:16:48.190Z,93496.56
2022-12-23T01:19:15.238Z,93504.19
2022-12-23T01:21:42.043Z,93500.94
2022-12-23T01:24:08.891Z,93506.34
2022-12-23T01:26:35.792Z,93501.75
2022-12-23T01:29:02.989Z,93491.28
2022-12-23T01:31:30.212Z,93502.31
2022-12-23T01:33:57.782Z,93497.50
2022-12-23T01:36:24.895Z,93503.06
2022-12-23T01:38:52.021Z,93491.28
2022-12-23T01:41:44.500Z,93480.34
2022-12-23T01:44:47.554Z,93484.16
2022-12-23T01:47:31.507Z,93471.03
2022-12-23T01:50:13.616Z,93478.63
2022-12-23T01:53:17.987Z,93478.28
2022-12-23T01:56:04.278Z,93469.63
2022-12-23T01:58:38.777Z,93469.88
2022-12-23T02:01:25.347Z,93471.34
2022-12-23T02:03:55.530Z,93472.28
2022-12-23T02:06:47.073Z,93464.09
2022-12-23T02:09:27.717Z,93452.00
2022-12-23T02:12:21.623Z,93445.56
2022-12-23T02:15:36.222Z,93442.22
2022-12-23T02:18:35.257Z,93436.44
2022-12-23T02:21:32.166Z,93432.44
2022-12-23T02:24:29.423Z,93432.19
2022-12-23T02:27:08.630Z,93417.53
2022-12-23T02:29:57.425Z,93423.78
2022-12-23T02:32:31.850Z,93428.84
2022-12-23T02:35:16.820Z,93429.28
2022-12-23T02:38:00.580Z,93438.41
2022-12-23T02:40:30.007Z,93434.00
2022-12-23T02:43:09.029Z,93439.22
2022-12-23T02:45:40.912Z,93441.16
2022-12-23T02:48:20.014Z,93437.47
2022-12-23T02:50:47.326Z,93446.22
2022-12-23T02:53:36.144Z,93439.06
2022-12-23T02:56:04.303Z,93424.56
2022-12-23T02:58:38.828Z,93420.03
2022-12-23T03:01:07.240Z,93427.19
2022-12-23T03:03:35.505Z,93421.75
2022-12-23T03:06:02.753Z,93422.34
2022-12-23T03:08:39.908Z,93421.16
2022-12-23T03:11:14.861Z,93430.72
2022-12-23T03:13:59.914Z,93426.28
2022-12-23T03:16:53.249Z,93430.63
2022-12-23T03:19:33.600Z,93450.56
2022-12-23T03:22:08.515Z,93431.97
2022-12-23T03:24:41.196Z,93435.22
2022-12-23T03:27:18.195Z,93439.22
2022-12-23T03:30:01.463Z,93427.09
2022-12-23T03:32:29.971Z,93430.50
2022-12-23T03:34:59.372Z,93424.47
2022-12-23T03:37:27.624Z,93419.06
2022-12-23T03:40:23.855Z,93426.97
2022-12-23T03:42:57.158Z,93434.97
2022-12-23T03:45:39.429Z,93438.19
2022-12-23T03:48:16.216Z,93443.84
2022-12-23T03:50:44.155Z,93440.66
2022-12-23T03:53:15.469Z,93450.16
2022-12-23T03:55:50.647Z,93438.88
2022-12-23T03:58:27.342Z,93450.31
2022-12-23T04:01:23.250Z,93440.16
2022-12-23T04:03:56.307Z,93446.97
2022-12-23T04:06:24.260Z,93437.38
2022-12-23T04:08:51.438Z,93447.31
2022-12-23T04:11:18.325Z,93447.06
2022-12-23T04:13:47.320Z,93443.31
2022-12-23T04:16:13.986Z,93445.41
2022-12-23T04:18:40.795Z,93436.69
2022-12-23T04:21:07.598Z,93437.97
2022-12-23T04:23:34.357Z,93440.47
2022-12-23T04:26:01.136Z,93443.69
2022-12-23T04:28:27.927Z,93436.97
2022-12-23T04:30:54.698Z,93442.13
2022-12-23T04:33:21.718Z,93446.03
2022-12-23T04:35:48.468Z,93440.19
2022-12-23T04:38:16.496Z,93433.53
2022-12-23T04:40:47.022Z,93431.72
2022-12-23T04:43:13.898Z,93425.03
2022-12-23T04:45:40.809Z,93429.41
2022-12-23T04:48:07.520Z,93419.72
2022-12-23T04:50:34.323Z,93433.91
2022-12-23T04:53:01.079Z,93426.41
2022-12-23T04:55:27.832Z,93439.88
2022-12-23T04:57:54.567Z,93432.00
2022-12-23T05:00:22.156Z,93446.31
2022-12-23T05:02:49.113Z,93465.34
2022-12-23T05:05:16.077Z,93459.34
2022-12-23T05:07:42.884Z,93457.63
2022-12-23T05:10:10.316Z,93457.84
2022-12-23T05:12:37.074Z,93453.94
2022-12-23T05:15:04.091Z,93458.53
2022-12-23T05:17:30.872Z,93462.69
2022-12-23T05:19:57.667Z,93473.41
2022-12-23T05:22:24.478Z,93473.63
2022-12-23T05:24:51.266Z,93481.56
2022-12-23T05:27:18.330Z,93486.47
2022-12-23T05:29:45.141Z,93472.31
2022-12-23T05:32:11.983Z,93468.59
2022-12-23T05:34:38.867Z,93469.41
2022-12-23T05:37:05.644Z,93465.59
2022-12-23T05:39:32.410Z,93464.97
2022-12-23T05:41:59.187Z,93468.88
2022-12-23T05:44:25.920Z,93462.41
2022-12-23T05:46:52.779Z,93465.13
2022-12-23T05:49:19.613Z,93466.19
2022-12-23T05:51:46.401Z,93463.16
2022-12-23T05:54:13.238Z,93468.81
2022-12-23T05:56:39.975Z,93476.28
2022-12-23T05:59:07.803Z,93475.06
2022-12-23T06:01:35.387Z,93473.44
2022-12-23T06:04:02.343Z,93476.66
2022-12-23T06:06:29.194Z,93471.13
2022-12-23T06:08:59.788Z,93473.81
2022-12-23T06:11:27.265Z,93474.03
2022-12-23T06:13:54.020Z,93475.09
2022-12-23T06:16:20.969Z,93477.16
2022-12-23T06:18:47.905Z,93480.38
2022-12-23T06:21:14.684Z,93472.69
2022-12-23T06:23:41.449Z,93471.19
2022-12-23T06:26:08.585Z,93470.94
2022-12-23T06:28:35.379Z,93476.59
2022-12-23T06:31:02.198Z,93468.22
2022-12-23T06:33:29.005Z,93468.44
2022-12-23T06:35:55.786Z,93471.78
2022-12-23T06:38:22.733Z,93471.09
2022-12-23T06:40:49.617Z,93473.16
2022-12-23T06:43:16.509Z,93480.28
2022-12-23T06:45:47.522Z,93484.50
2022-12-23T06:48:14.543Z,93494.97
2022-12-23T06:50:41.256Z,93484.44
2022-12-23T06:53:08.136Z,93488.84
2022-12-23T06:55:35.112Z,93485.50
2022-12-23T06:58:01.888Z,93492.75
2022-12-23T07:00:28.658Z,93490.38
2022-12-23T07:02:55.624Z,93492.31
2022-12-23T07:05:22.683Z,93487.78
2022-12-23T07:07:49.439Z,93485.69
2022-12-23T07:10:16.299Z,93493.19
2022-12-23T07:12:47.538Z,93485.69
2022-12-23T07:15:17.464Z,93498.28
2022-12-23T07:17:44.225Z,93487.97
2022-12-23T07:20:13.552Z,93479.78
2022-12-23T07:22:40.508Z,93488.16
2022-12-23T07:25:08.067Z,93480.66
2022-12-23T07:27:34.839Z,93494.13
2022-12-23T07:30:01.966Z,93483.31
2022-12-23T07:32:28.750Z,93485.66
2022-12-23T07:34:56.136Z,93487.94
2022-12-23T07:37:22.986Z,93494.84
2022-12-23T07:39:49.746Z,93504.34
2022-12-23T07:42:43.354Z,93503.50
2022-12-23T07:45:04.585Z,93501.25
2022-12-23T07:47:31.501Z,93503.22
2022-12-23T07:49:58.239Z,93508.91
2022-12-23T07:52:24.996Z,93510.00
2022-12-23T07:54:51.759Z,93505.91
2022-12-23T07:57:18.552Z,93504.47
2022-12-23T07:59:45.291Z,93508.72
2022-12-23T08:02:12.237Z,93506.75
2022-12-23T08:04:45.643Z,93503.19
2022-12-23T08:07:12.969Z,93510.13
2022-12-23T08:09:39.769Z,93513.38
2022-12-23T08:12:06.876Z,93505.22
2022-12-23T08:14:33.633Z,93509.75
2022-12-23T08:17:00.488Z,93506.56
2022-12-23T08:19:28.194Z,93506.44
2022-12-23T08:21:55.016Z,93507.50
2022-12-23T08:24:21.819Z,93503.31
2022-12-23T08:26:48.647Z,93512.19
2022-12-23T08:29:15.564Z,93502.41
2022-12-23T08:31:42.432Z,93507.72
2022-12-23T08:34:09.194Z,93501.53
2022-12-23T08:36:36.556Z,93504.91
2022-12-23T08:39:06.592Z,93509.38
2022-12-23T08:41:37.224Z,93501.09
2022-12-23T08:44:04.103Z,93499.22
2022-12-23T08:46:31.047Z,93507.03
2022-12-23T08:48:57.975Z,93501.41
2022-12-23T08:51:25.969Z,93497.72
2022-12-23T08:53:59.785Z,93495.03
2022-12-23T08:56:32.166Z,93491.00
2022-12-23T08:58:59.265Z,93494.09
2022-12-23T09:01:29.202Z,93494.78
2022-12-23T09:03:56.743Z,93492.34
2022-12-23T09:06:29.579Z,93487.75
2022-12-23T09:08:56.708Z,93489.28
2022-12-23T09:11:25.732Z,93491.94
2022-12-23T09:13:52.760Z,93489.25
2022-12-23T09:16:20.124Z,93497.84
2022-12-23T09:18:47.099Z,93489.88
2022-12-23T09:21:16.261Z,93492.38
2022-12-23T09:23:43.196Z,93491.78
2022-12-23T09:26:11.084Z,93488.13
2022-12-23T09:28:39.428Z,93484.63
2022-12-23T09:31:08.727Z,93487.50
2022-12-23T09:33:36.335Z,93491.22
2022-12-23T09:36:03.691Z,93490.34
2022-12-23T09:38:30.900Z,93499.78
2022-12-23T09:41:11.492Z,93487.50
2022-12-23T09:43:45.282Z,93493.22
2022-12-23T09:46:15.053Z,93489.00
2022-12-23T09:48:48.432Z,93496.44
2022-12-23T09:51:17.632Z,93494.66
2022-12-23T09:54:05.705Z,93488.88
2022-12-23T09:56:54.188Z,93490.25
2022-12-23T09:59:29.868Z,93479.69
2022-12-23T10:01:56.698Z,93492.31
2022-12-23T10:05:03.068Z,93477.69
2022-12-23T10:07:42.141Z,93478.28
2022-12-23T10:10:20.518Z,93488.13
2022-12-23T10:12:50.141Z,93488.94
2022-12-23T10:15:22.129Z,93482.66
2022-12-23T10:17:51.449Z,93474.50
2022-12-23T10:20:29.306Z,93468.22
2022-12-23T10:22:57.304Z,93472.59
2022-12-23T10:25:32.665Z,93471.66
2022-12-23T10:27:59.549Z,93473.28
2022-12-23T10:30:53.912Z,93475.63
2022-12-23T10:33:24.002Z,93462.72
2022-12-23T10:57:23.635Z,93435.97
2022-12-23T10:59:50.499Z,93438.44
2022-12-23T11:02:57.488Z,93433.22
2022-12-23T11:10:16.085Z,93441.16
2022-12-23T11:13:58.877Z,93434.50
2022-12-23T12:04:04.744Z,93437.88
2022-12-23T12:06:51.268Z,93436.91
2022-12-23T12:09:49.287Z,93437.53
2022-12-23T12:17:38.233Z,93429.78
2022-12-23T12:20:30.364Z,93424.81
2022-12-23T12:24:14.597Z,93418.41
2022-12-23T12:26:42.128Z,93422.31
2022-12-23T12:43:35.433Z,93421.97
2022-12-23T12:46:20.214Z,93428.97
2022-12-23T13:03:03.911Z,93418.41
2022-12-23T13:05:39.574Z,93426.94
2022-12-23T13:17:02.982Z,93417.41
2022-12-23T13:37:49.863Z,93418.81
2022-12-23T13:40:42.185Z,93419.75
2022-12-23T13:43:43.572Z,93419.63
2022-12-23T13:46:54.509Z,93413.06
2022-12-23T13:50:11.872Z,93421.75
2022-12-23T14:06:38.017Z,93414.91
2022-12-23T14:09:30.687Z,93419.91
2022-12-23T14:12:42.763Z,93420.19
2022-12-23T14:15:18.602Z,93433.44
2022-12-23T14:31:41.642Z,93430.75
2022-12-23T14:34:20.441Z,93419.44
2022-12-23T14:37:40.456Z,93423.34
2022-12-23T14:49:29.694Z,93432.13
2022-12-23T14:51:50.861Z,93432.00
2022-12-23T14:54:39.544Z,93429.66
2022-12-23T14:57:16.539Z,93434.69
2022-12-23T14:59:57.025Z,93440.16
2022-12-23T15:02:42.754Z,93441.63
2022-12-23T15:05:28.196Z,93437.59
2022-12-23T15:07:56.977Z,93440.66
2022-12-23T15:10:26.113Z,93442.44
2022-12-23T15:12:56.174Z,93446.28
2022-12-23T15:15:25.377Z,93449.47
2022-12-23T15:18:13.147Z,93447.44
2022-12-23T15:21:04.011Z,93450.47
2022-12-23T15:23:50.627Z,93447.00
2022-12-23T15:26:17.825Z,93459.88
2022-12-23T15:29:07.310Z,93460.44
2022-12-23T15:31:42.486Z,93459.28
2022-12-23T15:34:17.072Z,93465.56
2022-12-23T15:37:03.791Z,93459.94
2022-12-23T15:39:54.120Z,93470.69
2022-12-23T15:42:48.092Z,93475.53
2022-12-23T15:45:36.513Z,93468.28
2022-12-23T15:48:05.371Z,93477.50
2022-12-23T15:50:40.491Z,93475.75
2022-12-23T15:53:09.711Z,93476.41
2022-12-23T15:55:39.293Z,93478.59
2022-12-23T15:58:06.145Z,93481.16
2022-12-23T16:00:40.243Z,93476.28
2022-12-23T16:03:19.340Z,93479.31
2022-12-23T16:05:46.191Z,93474.28
2022-12-23T16:08:24.627Z,93482.16
2022-12-23T16:11:14.889Z,93480.47
2022-12-23T16:13:58.797Z,93481.50
2022-12-23T16:16:45.031Z,93477.69
2022-12-23T16:19:49.804Z,93480.31
2022-12-23T16:22:44.831Z,93469.81
2022-12-23T16:25:14.887Z,93475.94
2022-12-23T16:27:48.248Z,93475.78
2022-12-23T16:30:24.258Z,93479.81
2022-12-23T16:32:56.430Z,93481.88
2022-12-23T16:35:43.702Z,93487.47
2022-12-23T16:38:30.184Z,93485.78
2022-12-23T16:41:15.300Z,93479.56
2022-12-23T16:43:47.693Z,93482.75
2022-12-23T16:46:20.148Z,93482.94
2022-12-23T16:48:55.551Z,93488.03
2022-12-23T16:51:23.632Z,93491.25
2022-12-23T16:53:52.550Z,93488.53
2022-12-23T16:56:21.206Z,93489.16
2022-12-23T16:58:48.006Z,93493.84
2022-12-23T17:01:20.934Z,93498.31
2022-12-23T17:03:47.886Z,93496.75
2022-12-23T17:06:16.612Z,93494.03
2022-12-23T17:08:43.971Z,93502.03
2022-12-23T17:11:19.859Z,93489.38
2022-12-23T17:13:47.074Z,93486.81
2022-12-23T17:16:15.687Z,93478.47
2022-12-23T17:18:42.411Z,93486.97
2022-12-23T17:21:36.844Z,93492.72
2022-12-23T17:24:22.520Z,93494.41
2022-12-23T17:26:49.749Z,93502.19
2022-12-23T17:29:17.022Z,93498.47
2022-12-23T17:31:45.008Z,93500.06
2022-12-23T17:34:16.590Z,93501.81
2022-12-23T17:36:49.602Z,93507.09
2022-12-23T17:39:17.413Z,93510.66
2022-12-23T17:41:44.261Z,93511.34
2022-12-23T17:44:13.810Z,93515.38
2022-12-23T17:46:40.743Z,93508.53
2022-12-23T17:49:08.742Z,93512.13
2022-12-23T17:51:35.575Z,93522.34
2022-12-23T17:54:04.612Z,93518.13
2022-12-23T17:56:31.545Z,93509.94
2022-12-23T17:58:58.657Z,93518.41
2022-12-23T18:01:30.475Z,93518.56
2022-12-23T18:03:58.944Z,93520.56
2022-12-23T18:06:27.691Z,93514.38
2022-12-23T18:08:54.470Z,93523.91
2022-12-23T18:11:21.222Z,93525.50
2022-12-23T18:13:49.528Z,93529.38
2022-12-23T18:16:16.359Z,93522.94
2022-12-23T18:18:46.483Z,93520.25
2022-12-23T18:21:21.196Z,93529.50
2022-12-23T18:23:48.074Z,93530.16
2022-12-23T18:26:15.259Z,93531.41
2022-12-23T18:28:43.043Z,93540.47
2022-12-23T18:31:18.543Z,93542.41
2022-12-23T18:33:45.990Z,93538.13
2022-12-23T18:36:25.764Z,93527.22
2022-12-23T18:38:53.446Z,93528.94
2022-12-23T18:41:21.577Z,93534.69
2022-12-23T18:43:48.781Z,93530.78
2022-12-23T18:46:15.678Z,93538.38
2022-12-23T18:48:42.735Z,93547.34
2022-12-23T18:51:16.486Z,93540.34
2022-12-23T18:53:43.885Z,93544.63
2022-12-23T18:56:15.179Z,93540.72
2022-12-23T18:58:42.344Z,93540.03
2022-12-23T19:01:14.006Z,93529.56
2022-12-23T19:03:41.490Z,93537.44
2022-12-23T19:06:10.012Z,93541.16
2022-12-23T19:08:37.461Z,93536.19
2022-12-23T19:11:16.247Z,93526.81
2022-12-23T19:13:43.084Z,93525.41
2022-12-23T19:16:17.972Z,93532.75
2022-12-23T19:18:45.552Z,93520.44
2022-12-23T19:21:30.899Z,93519.97
2022-12-23T19:23:58.617Z,93523.66
2022-12-23T19:26:25.534Z,93522.19
2022-12-23T19:28:52.433Z,93520.19
2022-12-23T19:31:19.571Z,93525.41
2022-12-23T19:33:47.157Z,93521.25
2022-12-23T19:36:16.924Z,93513.97
2022-12-23T19:38:43.812Z,93522.50
2022-12-23T19:41:10.804Z,93515.75
2022-12-23T19:43:38.701Z,93505.22
2022-12-23T19:46:11.010Z,93505.09
2022-12-23T19:48:38.178Z,93512.56
2022-12-23T19:51:06.430Z,93510.84
2022-12-23T19:53:33.731Z,93513.00
2022-12-23T19:56:22.448Z,93515.53
2022-12-23T19:58:49.870Z,93523.44
2022-12-23T20:01:19.380Z,93527.41
2022-12-23T20:03:47.426Z,93524.56
2022-12-23T20:06:18.853Z,93529.69
2022-12-23T20:08:46.726Z,93528.06
2022-12-23T20:11:17.143Z,93528.88
2022-12-23T20:13:44.668Z,93532.94
2022-12-23T20:16:11.648Z,93533.28
2022-12-23T20:18:38.965Z,93545.06
2022-12-23T20:21:07.024Z,93544.75
2022-12-23T20:23:34.105Z,93538.94
2022-12-23T20:26:01.029Z,93540.00
2022-12-23T20:28:28.131Z,93539.09
2022-12-23T20:31:07.801Z,93539.09
2022-12-23T20:33:54.010Z,93529.41
2022-12-23T20:36:25.149Z,93538.22
2022-12-23T20:38:52.571Z,93544.47
2022-12-23T20:41:21.735Z,93549.19
2022-12-23T20:44:23.468Z,93550.81
2022-12-23T20:46:36.212Z,93543.13
2022-12-23T20:49:03.120Z,93547.72
2022-12-23T20:51:29.947Z,93545.88
2022-12-23T20:53:59.903Z,93541.19
2022-12-23T20:56:30.487Z,93550.19
2022-12-23T20:58:59.258Z,93551.94
2022-12-23T21:01:28.197Z,93551.22
2022-12-23T21:03:57.910Z,93560.47
2022-12-23T21:06:45.123Z,93549.84
2022-12-23T21:09:30.577Z,93554.78
2022-12-23T21:11:57.472Z,93555.28
2022-12-23T21:14:24.266Z,93555.50
2022-12-23T21:16:51.339Z,93555.16
2022-12-23T21:19:20.601Z,93554.34
2022-12-23T21:21:48.439Z,93550.19
2022-12-23T21:24:15.986Z,93552.63
2022-12-23T21:26:42.821Z,93540.75
2022-12-23T21:29:10.834Z,93547.44
2022-12-23T21:31:40.413Z,93547.06
2022-12-23T21:34:07.849Z,93553.19
2022-12-23T21:36:37.292Z,93540.25
2022-12-23T21:39:05.637Z,93536.25
2022-12-23T21:41:36.037Z,93544.41
2022-12-23T21:44:03.709Z,93541.66
2022-12-23T21:46:30.685Z,93549.69
2022-12-23T21:48:58.823Z,93545.09
2022-12-23T21:51:39.480Z,93547.63
2022-12-23T21:54:07.845Z,93529.91
2022-12-23T21:56:34.880Z,93527.81
2022-12-23T21:59:20.428Z,93523.44
2022-12-23T22:01:47.800Z,93523.69
2022-12-23T22:04:14.604Z,93519.09
2022-12-23T22:06:45.849Z,93521.47
2022-12-23T22:09:18.103Z,93524.50
2022-12-23T22:11:45.572Z,93526.22
2022-12-23T22:14:16.165Z,93529.09
2022-12-23T22:16:43.403Z,93534.50
2022-12-23T22:19:11.640Z,93523.44
2022-12-23T22:21:39.850Z,93521.00
2022-12-23T22:24:07.318Z,93518.13
2022-12-23T22:26:34.638Z,93516.06
2022-12-23T22:29:04.300Z,93513.72
2022-12-23T22:31:31.131Z,93521.91
2022-12-23T22:34:19.378Z,93519.50
2022-12-23T22:36:46.481Z,93526.88
2022-12-23T22:39:20.041Z,93531.38
2022-12-23T22:41:51.617Z,93524.78
2022-12-23T22:44:18.771Z,93528.38
2022-12-23T22:46:45.705Z,93522.59
2022-12-23T22:49:13.939Z,93520.66
2022-12-23T22:52:01.580Z,93518.59
2022-12-23T22:54:46.939Z,93536.19
2022-12-23T22:57:13.810Z,93546.53
2022-12-23T22:59:40.634Z,93534.44
2022-12-23T23:02:07.673Z,93540.78
2022-12-23T23:04:34.704Z,93531.75
2022-12-23T23:07:01.533Z,93529.59
2022-12-23T23:09:28.431Z,93524.97
2022-12-23T23:11:55.229Z,93530.84
2022-12-23T23:14:22.134Z,93517.03
2022-12-23T23:16:49.151Z,93526.47
2022-12-23T23:19:16.575Z,93523.94
2022-12-23T23:21:43.961Z,93522.22
2022-12-23T23:24:12.093Z,93524.84
2022-12-23T23:26:39.024Z,93514.22
2022-12-23T23:29:05.790Z,93520.44
2022-12-23T23:31:41.972Z,93522.53
2022-12-23T23:34:10.372Z,93521.97
2022-12-23T23:36:37.239Z,93527.22
2022-12-23T23:39:04.264Z,93522.06
2022-12-23T23:41:31.081Z,93519.75
2022-12-23T23:44:16.731Z,93524.34
2022-12-23T23:46:45.424Z,93525.94
2022-12-23T23:49:12.686Z,93518.56
2022-12-23T23:51:41.708Z,93518.47
2022-12-23T23:54:09.085Z,93521.91
2022-12-23T23:56:38.788Z,93525.84
2022-12-23T23:59:07.425Z,93516.63
